sensor_id;sensor_type;location;lat;lon;timestamp;P1;durP1;ratioP1;P2;durP2;ratioP2
74245;SDS011;62601;51.044;13.788;2023-04-27T00:01:37;6.75;;;6.03;;
74245;SDS011;62601;51.044;13.788;2023-04-27T00:03:59;6.53;;;5.72;;
74245;SDS011;62601;51.044;13.788;2023-04-27T00:06:20;9.40;;;5.82;;
74245;SDS011;62601;51.044;13.788;2023-04-27T00:08:42;10.15;;;6.30;;
74245;SDS011;62601;51.044;13.788;2023-04-27T00:11:03;8.25;;;5.22;;
74245;SDS011;62601;51.044;13.788;2023-04-27T00:13:24;8.05;;;5.40;;
74245;SDS011;62601;51.044;13.788;2023-04-27T00:15:46;9.93;;;5.45;;
74245;SDS011;62601;51.044;13.788;2023-04-27T00:18:07;10.50;;;5.97;;
74245;SDS011;62601;51.044;13.788;2023-04-27T00:20:28;8.60;;;5.85;;
74245;SDS011;62601;51.044;13.788;2023-04-27T00:22:49;7.97;;;5.72;;
74245;SDS011;62601;51.044;13.788;2023-04-27T00:25:10;10.18;;;5.95;;
74245;SDS011;62601;51.044;13.788;2023-04-27T00:27:32;7.07;;;5.28;;
74245;SDS011;62601;51.044;13.788;2023-04-27T00:29:53;10.65;;;6.03;;
74245;SDS011;62601;51.044;13.788;2023-04-27T00:32:15;10.15;;;5.90;;
74245;SDS011;62601;51.044;13.788;2023-04-27T00:34:35;8.20;;;5.20;;
74245;SDS011;62601;51.044;13.788;2023-04-27T00:36:56;7.05;;;5.10;;
74245;SDS011;62601;51.044;13.788;2023-04-27T00:39:17;10.77;;;5.47;;
74245;SDS011;62601;51.044;13.788;2023-04-27T00:41:39;12.98;;;6.70;;
74245;SDS011;62601;51.044;13.788;2023-04-27T00:44:00;8.65;;;5.05;;
74245;SDS011;62601;51.044;13.788;2023-04-27T00:46:21;7.00;;;5.57;;
74245;SDS011;62601;51.044;13.788;2023-04-27T00:48:42;10.45;;;5.22;;
74245;SDS011;62601;51.044;13.788;2023-04-27T00:51:04;7.28;;;5.40;;
74245;SDS011;62601;51.044;13.788;2023-04-27T00:53:28;8.07;;;5.55;;
74245;SDS011;62601;51.044;13.788;2023-04-27T00:55:48;9.55;;;5.90;;
74245;SDS011;62601;51.044;13.788;2023-04-27T00:58:08;7.30;;;5.15;;
74245;SDS011;62601;51.044;13.788;2023-04-27T01:00:28;7.35;;;5.18;;
74245;SDS011;62601;51.044;13.788;2023-04-27T01:02:51;7.50;;;5.75;;
74245;SDS011;62601;51.044;13.788;2023-04-27T01:05:14;7.97;;;5.22;;
74245;SDS011;62601;51.044;13.788;2023-04-27T01:07:39;9.82;;;5.20;;
74245;SDS011;62601;51.044;13.788;2023-04-27T01:09:59;7.35;;;5.80;;
74245;SDS011;62601;51.044;13.788;2023-04-27T01:12:20;5.85;;;4.88;;
74245;SDS011;62601;51.044;13.788;2023-04-27T01:14:40;6.88;;;5.00;;
74245;SDS011;62601;51.044;13.788;2023-04-27T01:17:00;7.10;;;5.55;;
74245;SDS011;62601;51.044;13.788;2023-04-27T01:19:22;7.18;;;5.88;;
74245;SDS011;62601;51.044;13.788;2023-04-27T01:21:42;7.85;;;5.43;;
74245;SDS011;62601;51.044;13.788;2023-04-27T01:24:04;8.65;;;5.47;;
74245;SDS011;62601;51.044;13.788;2023-04-27T01:26:25;7.72;;;5.45;;
74245;SDS011;62601;51.044;13.788;2023-04-27T01:28:46;12.15;;;5.72;;
74245;SDS011;62601;51.044;13.788;2023-04-27T01:31:07;6.35;;;5.25;;
74245;SDS011;62601;51.044;13.788;2023-04-27T01:33:28;9.43;;;5.75;;
74245;SDS011;62601;51.044;13.788;2023-04-27T01:35:50;8.90;;;5.80;;
74245;SDS011;62601;51.044;13.788;2023-04-27T01:38:10;7.15;;;5.40;;
74245;SDS011;62601;51.044;13.788;2023-04-27T01:40:32;8.77;;;6.13;;
74245;SDS011;62601;51.044;13.788;2023-04-27T01:42:54;6.70;;;5.40;;
74245;SDS011;62601;51.044;13.788;2023-04-27T01:45:14;10.50;;;7.03;;
74245;SDS011;62601;51.044;13.788;2023-04-27T01:47:35;7.45;;;6.10;;
74245;SDS011;62601;51.044;13.788;2023-04-27T01:49:57;5.95;;;5.25;;
74245;SDS011;62601;51.044;13.788;2023-04-27T01:52:18;10.10;;;5.57;;
74245;SDS011;62601;51.044;13.788;2023-04-27T01:54:39;7.88;;;5.40;;
74245;SDS011;62601;51.044;13.788;2023-04-27T01:57:01;6.50;;;5.45;;
74245;SDS011;62601;51.044;13.788;2023-04-27T01:59:21;6.90;;;4.93;;
74245;SDS011;62601;51.044;13.788;2023-04-27T02:01:41;7.50;;;4.72;;
74245;SDS011;62601;51.044;13.788;2023-04-27T02:04:01;8.52;;;5.32;;
74245;SDS011;62601;51.044;13.788;2023-04-27T02:06:21;8.55;;;5.03;;
74245;SDS011;62601;51.044;13.788;2023-04-27T02:08:42;7.97;;;5.53;;
74245;SDS011;62601;51.044;13.788;2023-04-27T02:11:02;6.20;;;4.82;;
74245;SDS011;62601;51.044;13.788;2023-04-27T02:13:22;5.95;;;5.13;;
74245;SDS011;62601;51.044;13.788;2023-04-27T02:15:43;7.90;;;5.90;;
74245;SDS011;62601;51.044;13.788;2023-04-27T02:18:03;16.08;;;8.30;;
74245;SDS011;62601;51.044;13.788;2023-04-27T02:20:23;6.38;;;4.95;;
74245;SDS011;62601;51.044;13.788;2023-04-27T02:22:43;6.82;;;5.22;;
74245;SDS011;62601;51.044;13.788;2023-04-27T02:25:05;6.85;;;5.05;;
74245;SDS011;62601;51.044;13.788;2023-04-27T02:27:26;9.63;;;5.45;;
74245;SDS011;62601;51.044;13.788;2023-04-27T02:29:48;10.98;;;5.47;;
74245;SDS011;62601;51.044;13.788;2023-04-27T02:32:12;6.00;;;4.63;;
74245;SDS011;62601;51.044;13.788;2023-04-27T02:34:33;5.53;;;4.40;;
74245;SDS011;62601;51.044;13.788;2023-04-27T02:36:54;7.05;;;4.75;;
74245;SDS011;62601;51.044;13.788;2023-04-27T02:39:16;7.65;;;4.88;;
74245;SDS011;62601;51.044;13.788;2023-04-27T02:41:37;4.75;;;4.22;;
74245;SDS011;62601;51.044;13.788;2023-04-27T02:43:59;5.32;;;4.40;;
74245;SDS011;62601;51.044;13.788;2023-04-27T02:46:20;6.85;;;5.20;;
74245;SDS011;62601;51.044;13.788;2023-04-27T02:48:41;11.13;;;5.18;;
74245;SDS011;62601;51.044;13.788;2023-04-27T02:51:04;5.97;;;4.70;;
74245;SDS011;62601;51.044;13.788;2023-04-27T02:53:25;7.82;;;4.47;;
74245;SDS011;62601;51.044;13.788;2023-04-27T02:55:47;8.95;;;4.20;;
74245;SDS011;62601;51.044;13.788;2023-04-27T02:58:08;7.13;;;4.18;;
74245;SDS011;62601;51.044;13.788;2023-04-27T03:00:29;6.78;;;4.30;;
74245;SDS011;62601;51.044;13.788;2023-04-27T03:02:50;9.30;;;4.78;;
74245;SDS011;62601;51.044;13.788;2023-04-27T03:05:11;8.30;;;4.95;;
74245;SDS011;62601;51.044;13.788;2023-04-27T03:07:33;5.90;;;4.53;;
74245;SDS011;62601;51.044;13.788;2023-04-27T03:09:54;7.53;;;4.80;;
74245;SDS011;62601;51.044;13.788;2023-04-27T03:12:14;6.07;;;4.30;;
74245;SDS011;62601;51.044;13.788;2023-04-27T03:14:35;6.70;;;5.40;;
74245;SDS011;62601;51.044;13.788;2023-04-27T03:16:56;14.57;;;4.60;;
74245;SDS011;62601;51.044;13.788;2023-04-27T03:19:18;7.55;;;4.85;;
74245;SDS011;62601;51.044;13.788;2023-04-27T03:21:38;5.20;;;4.47;;
74245;SDS011;62601;51.044;13.788;2023-04-27T03:23:59;8.57;;;4.80;;
74245;SDS011;62601;51.044;13.788;2023-04-27T03:26:21;6.50;;;5.20;;
74245;SDS011;62601;51.044;13.788;2023-04-27T03:28:42;6.95;;;4.60;;
74245;SDS011;62601;51.044;13.788;2023-04-27T03:31:07;7.75;;;5.15;;
74245;SDS011;62601;51.044;13.788;2023-04-27T03:33:29;7.97;;;4.35;;
74245;SDS011;62601;51.044;13.788;2023-04-27T03:35:56;8.68;;;5.50;;
74245;SDS011;62601;51.044;13.788;2023-04-27T03:38:18;9.10;;;4.40;;
74245;SDS011;62601;51.044;13.788;2023-04-27T03:40:39;8.43;;;4.30;;
74245;SDS011;62601;51.044;13.788;2023-04-27T03:43:01;6.10;;;4.85;;
74245;SDS011;62601;51.044;13.788;2023-04-27T03:45:22;9.30;;;4.45;;
74245;SDS011;62601;51.044;13.788;2023-04-27T03:47:42;6.25;;;4.60;;
74245;SDS011;62601;51.044;13.788;2023-04-27T03:50:02;6.72;;;4.70;;
74245;SDS011;62601;51.044;13.788;2023-04-27T03:52:24;6.03;;;4.50;;
74245;SDS011;62601;51.044;13.788;2023-04-27T03:54:45;10.35;;;4.85;;
74245;SDS011;62601;51.044;13.788;2023-04-27T03:57:06;9.73;;;5.15;;
74245;SDS011;62601;51.044;13.788;2023-04-27T03:59:28;8.70;;;5.10;;
74245;SDS011;62601;51.044;13.788;2023-04-27T04:01:49;13.60;;;6.45;;
74245;SDS011;62601;51.044;13.788;2023-04-27T04:04:11;8.80;;;5.55;;
74245;SDS011;62601;51.044;13.788;2023-04-27T04:06:32;16.05;;;5.70;;
74245;SDS011;62601;51.044;13.788;2023-04-27T04:08:53;7.57;;;5.20;;
74245;SDS011;62601;51.044;13.788;2023-04-27T04:11:14;8.40;;;5.15;;
74245;SDS011;62601;51.044;13.788;2023-04-27T04:13:36;12.07;;;6.20;;
74245;SDS011;62601;51.044;13.788;2023-04-27T04:16:04;6.55;;;5.30;;
74245;SDS011;62601;51.044;13.788;2023-04-27T04:18:25;11.20;;;4.95;;
74245;SDS011;62601;51.044;13.788;2023-04-27T04:20:47;8.65;;;4.65;;
74245;SDS011;62601;51.044;13.788;2023-04-27T04:23:07;7.28;;;5.28;;
74245;SDS011;62601;51.044;13.788;2023-04-27T04:25:28;7.07;;;4.97;;
74245;SDS011;62601;51.044;13.788;2023-04-27T04:27:48;15.50;;;6.03;;
74245;SDS011;62601;51.044;13.788;2023-04-27T04:30:09;9.30;;;5.80;;
74245;SDS011;62601;51.044;13.788;2023-04-27T04:32:30;9.48;;;4.97;;
74245;SDS011;62601;51.044;13.788;2023-04-27T04:34:51;8.55;;;4.97;;
74245;SDS011;62601;51.044;13.788;2023-04-27T04:37:11;9.38;;;5.40;;
74245;SDS011;62601;51.044;13.788;2023-04-27T04:39:32;8.70;;;4.70;;
74245;SDS011;62601;51.044;13.788;2023-04-27T04:41:53;7.85;;;5.50;;
74245;SDS011;62601;51.044;13.788;2023-04-27T04:44:14;10.60;;;5.35;;
74245;SDS011;62601;51.044;13.788;2023-04-27T04:46:34;8.88;;;5.43;;
74245;SDS011;62601;51.044;13.788;2023-04-27T04:48:54;9.20;;;5.25;;
74245;SDS011;62601;51.044;13.788;2023-04-27T04:51:14;12.23;;;6.25;;
74245;SDS011;62601;51.044;13.788;2023-04-27T04:53:36;8.95;;;5.15;;
74245;SDS011;62601;51.044;13.788;2023-04-27T04:55:56;11.30;;;5.75;;
74245;SDS011;62601;51.044;13.788;2023-04-27T04:58:16;12.93;;;5.40;;
74245;SDS011;62601;51.044;13.788;2023-04-27T05:00:36;8.38;;;5.00;;
74245;SDS011;62601;51.044;13.788;2023-04-27T05:02:58;8.35;;;5.43;;
74245;SDS011;62601;51.044;13.788;2023-04-27T05:05:19;6.65;;;4.72;;
74245;SDS011;62601;51.044;13.788;2023-04-27T05:07:41;8.30;;;4.97;;
74245;SDS011;62601;51.044;13.788;2023-04-27T05:10:01;6.63;;;5.20;;
74245;SDS011;62601;51.044;13.788;2023-04-27T05:12:22;8.85;;;5.90;;
74245;SDS011;62601;51.044;13.788;2023-04-27T05:14:42;11.07;;;5.75;;
74245;SDS011;62601;51.044;13.788;2023-04-27T05:17:02;9.35;;;5.50;;
74245;SDS011;62601;51.044;13.788;2023-04-27T05:19:22;9.10;;;5.10;;
74245;SDS011;62601;51.044;13.788;2023-04-27T05:21:43;12.90;;;6.65;;
74245;SDS011;62601;51.044;13.788;2023-04-27T05:24:04;7.20;;;5.05;;
74245;SDS011;62601;51.044;13.788;2023-04-27T05:26:26;8.95;;;5.75;;
74245;SDS011;62601;51.044;13.788;2023-04-27T05:28:47;6.22;;;4.88;;
74245;SDS011;62601;51.044;13.788;2023-04-27T05:31:09;5.55;;;5.05;;
74245;SDS011;62601;51.044;13.788;2023-04-27T05:33:30;6.65;;;4.80;;
74245;SDS011;62601;51.044;13.788;2023-04-27T05:35:52;13.95;;;5.82;;
74245;SDS011;62601;51.044;13.788;2023-04-27T05:38:13;8.18;;;4.50;;
74245;SDS011;62601;51.044;13.788;2023-04-27T05:40:37;7.78;;;4.80;;
74245;SDS011;62601;51.044;13.788;2023-04-27T05:42:58;9.40;;;4.70;;
74245;SDS011;62601;51.044;13.788;2023-04-27T05:45:18;6.45;;;4.95;;
74245;SDS011;62601;51.044;13.788;2023-04-27T05:47:39;6.15;;;4.78;;
74245;SDS011;62601;51.044;13.788;2023-04-27T05:49:59;9.82;;;5.22;;
74245;SDS011;62601;51.044;13.788;2023-04-27T05:52:19;10.95;;;6.00;;
74245;SDS011;62601;51.044;13.788;2023-04-27T05:54:44;8.98;;;5.07;;
74245;SDS011;62601;51.044;13.788;2023-04-27T05:57:06;11.48;;;4.95;;
74245;SDS011;62601;51.044;13.788;2023-04-27T05:59:27;9.10;;;5.00;;
74245;SDS011;62601;51.044;13.788;2023-04-27T06:01:47;9.55;;;5.50;;
74245;SDS011;62601;51.044;13.788;2023-04-27T06:04:07;6.00;;;5.13;;
74245;SDS011;62601;51.044;13.788;2023-04-27T06:06:29;11.00;;;5.50;;
74245;SDS011;62601;51.044;13.788;2023-04-27T06:08:50;8.75;;;5.22;;
74245;SDS011;62601;51.044;13.788;2023-04-27T06:11:11;6.82;;;5.28;;
74245;SDS011;62601;51.044;13.788;2023-04-27T06:13:31;5.85;;;4.78;;
74245;SDS011;62601;51.044;13.788;2023-04-27T06:15:53;9.45;;;5.30;;
74245;SDS011;62601;51.044;13.788;2023-04-27T06:18:14;6.93;;;5.70;;
74245;SDS011;62601;51.044;13.788;2023-04-27T06:20:35;8.75;;;5.75;;
74245;SDS011;62601;51.044;13.788;2023-04-27T06:22:57;8.88;;;5.20;;
74245;SDS011;62601;51.044;13.788;2023-04-27T06:25:22;11.65;;;5.35;;
74245;SDS011;62601;51.044;13.788;2023-04-27T06:27:43;6.38;;;4.70;;
74245;SDS011;62601;51.044;13.788;2023-04-27T06:30:04;6.18;;;5.00;;
74245;SDS011;62601;51.044;13.788;2023-04-27T06:32:26;9.10;;;5.78;;
74245;SDS011;62601;51.044;13.788;2023-04-27T06:34:48;11.32;;;5.32;;
74245;SDS011;62601;51.044;13.788;2023-04-27T06:37:08;8.10;;;5.40;;
74245;SDS011;62601;51.044;13.788;2023-04-27T06:39:28;7.10;;;5.07;;
74245;SDS011;62601;51.044;13.788;2023-04-27T06:41:51;7.03;;;5.30;;
74245;SDS011;62601;51.044;13.788;2023-04-27T06:44:11;9.77;;;5.60;;
74245;SDS011;62601;51.044;13.788;2023-04-27T06:46:31;6.10;;;5.32;;
74245;SDS011;62601;51.044;13.788;2023-04-27T06:48:51;10.40;;;5.47;;
74245;SDS011;62601;51.044;13.788;2023-04-27T06:51:11;7.53;;;4.90;;
74245;SDS011;62601;51.044;13.788;2023-04-27T06:53:32;8.80;;;5.25;;
74245;SDS011;62601;51.044;13.788;2023-04-27T06:55:54;6.07;;;4.65;;
74245;SDS011;62601;51.044;13.788;2023-04-27T06:58:14;14.07;;;5.80;;
74245;SDS011;62601;51.044;13.788;2023-04-27T07:00:34;8.60;;;5.97;;
74245;SDS011;62601;51.044;13.788;2023-04-27T07:02:55;6.93;;;5.10;;
74245;SDS011;62601;51.044;13.788;2023-04-27T07:05:16;9.23;;;6.38;;
74245;SDS011;62601;51.044;13.788;2023-04-27T07:07:38;7.57;;;5.43;;
74245;SDS011;62601;51.044;13.788;2023-04-27T07:09:58;11.98;;;5.63;;
74245;SDS011;62601;51.044;13.788;2023-04-27T07:12:19;9.68;;;4.90;;
74245;SDS011;62601;51.044;13.788;2023-04-27T07:14:41;6.65;;;4.70;;
74245;SDS011;62601;51.044;13.788;2023-04-27T07:17:02;6.70;;;4.85;;
74245;SDS011;62601;51.044;13.788;2023-04-27T07:19:23;9.48;;;4.90;;
74245;SDS011;62601;51.044;13.788;2023-04-27T07:21:44;9.73;;;5.47;;
74245;SDS011;62601;51.044;13.788;2023-04-27T07:24:06;7.70;;;5.65;;
74245;SDS011;62601;51.044;13.788;2023-04-27T07:26:26;6.68;;;5.57;;
74245;SDS011;62601;51.044;13.788;2023-04-27T07:28:48;7.85;;;4.60;;
74245;SDS011;62601;51.044;13.788;2023-04-27T07:31:08;9.73;;;5.38;;
74245;SDS011;62601;51.044;13.788;2023-04-27T07:33:28;6.75;;;4.90;;
74245;SDS011;62601;51.044;13.788;2023-04-27T07:35:48;5.88;;;5.03;;
74245;SDS011;62601;51.044;13.788;2023-04-27T07:38:10;6.90;;;5.30;;
74245;SDS011;62601;51.044;13.788;2023-04-27T07:40:30;7.55;;;5.22;;
74245;SDS011;62601;51.044;13.788;2023-04-27T07:42:52;7.68;;;6.13;;
74245;SDS011;62601;51.044;13.788;2023-04-27T07:45:13;11.05;;;5.70;;
74245;SDS011;62601;51.044;13.788;2023-04-27T07:47:35;9.10;;;6.10;;
74245;SDS011;62601;51.044;13.788;2023-04-27T07:49:55;13.95;;;5.82;;
74245;SDS011;62601;51.044;13.788;2023-04-27T07:52:16;10.80;;;5.65;;
74245;SDS011;62601;51.044;13.788;2023-04-27T07:54:39;6.63;;;5.10;;
74245;SDS011;62601;51.044;13.788;2023-04-27T07:57:00;8.55;;;5.63;;
74245;SDS011;62601;51.044;13.788;2023-04-27T07:59:22;8.48;;;6.05;;
74245;SDS011;62601;51.044;13.788;2023-04-27T08:01:43;8.45;;;5.60;;
74245;SDS011;62601;51.044;13.788;2023-04-27T08:04:04;6.80;;;5.10;;
74245;SDS011;62601;51.044;13.788;2023-04-27T08:06:26;8.85;;;5.40;;
74245;SDS011;62601;51.044;13.788;2023-04-27T08:08:47;10.93;;;5.60;;
74245;SDS011;62601;51.044;13.788;2023-04-27T08:11:10;11.15;;;5.20;;
74245;SDS011;62601;51.044;13.788;2023-04-27T08:13:34;8.52;;;5.38;;
74245;SDS011;62601;51.044;13.788;2023-04-27T08:15:55;7.97;;;5.28;;
74245;SDS011;62601;51.044;13.788;2023-04-27T08:18:15;11.20;;;5.70;;
74245;SDS011;62601;51.044;13.788;2023-04-27T08:20:37;8.25;;;5.65;;
74245;SDS011;62601;51.044;13.788;2023-04-27T08:22:57;8.95;;;6.22;;
74245;SDS011;62601;51.044;13.788;2023-04-27T08:25:17;9.38;;;6.57;;
74245;SDS011;62601;51.044;13.788;2023-04-27T08:27:39;6.55;;;5.22;;
74245;SDS011;62601;51.044;13.788;2023-04-27T08:30:01;6.97;;;5.30;;
74245;SDS011;62601;51.044;13.788;2023-04-27T08:32:22;12.40;;;6.00;;
74245;SDS011;62601;51.044;13.788;2023-04-27T08:34:43;10.82;;;7.68;;
74245;SDS011;62601;51.044;13.788;2023-04-27T08:37:04;8.43;;;5.78;;
74245;SDS011;62601;51.044;13.788;2023-04-27T08:39:26;10.75;;;6.07;;
74245;SDS011;62601;51.044;13.788;2023-04-27T08:41:47;7.20;;;5.55;;
74245;SDS011;62601;51.044;13.788;2023-04-27T08:44:09;9.13;;;7.55;;
74245;SDS011;62601;51.044;13.788;2023-04-27T08:46:30;7.78;;;5.55;;
74245;SDS011;62601;51.044;13.788;2023-04-27T08:48:52;6.38;;;5.75;;
74245;SDS011;62601;51.044;13.788;2023-04-27T08:51:14;9.52;;;6.18;;
74245;SDS011;62601;51.044;13.788;2023-04-27T08:53:35;8.80;;;6.68;;
74245;SDS011;62601;51.044;13.788;2023-04-27T08:55:56;7.82;;;5.93;;
74245;SDS011;62601;51.044;13.788;2023-04-27T08:58:18;9.70;;;6.25;;
74245;SDS011;62601;51.044;13.788;2023-04-27T09:00:40;8.90;;;6.07;;
74245;SDS011;62601;51.044;13.788;2023-04-27T09:03:04;8.35;;;6.20;;
74245;SDS011;62601;51.044;13.788;2023-04-27T09:05:26;8.00;;;5.68;;
74245;SDS011;62601;51.044;13.788;2023-04-27T09:08:01;7.57;;;5.85;;
74245;SDS011;62601;51.044;13.788;2023-04-27T09:10:23;20.02;;;8.10;;
74245;SDS011;62601;51.044;13.788;2023-04-27T09:12:52;9.38;;;7.10;;
74245;SDS011;62601;51.044;13.788;2023-04-27T09:15:23;9.25;;;7.13;;
74245;SDS011;62601;51.044;13.788;2023-04-27T09:17:43;8.90;;;6.68;;
74245;SDS011;62601;51.044;13.788;2023-04-27T09:20:08;11.13;;;6.15;;
74245;SDS011;62601;51.044;13.788;2023-04-27T09:22:28;14.25;;;6.70;;
74245;SDS011;62601;51.044;13.788;2023-04-27T09:24:49;10.52;;;6.45;;
74245;SDS011;62601;51.044;13.788;2023-04-27T09:27:17;9.13;;;5.75;;
74245;SDS011;62601;51.044;13.788;2023-04-27T09:29:39;7.90;;;6.53;;
74245;SDS011;62601;51.044;13.788;2023-04-27T09:32:00;9.38;;;6.90;;
74245;SDS011;62601;51.044;13.788;2023-04-27T09:34:22;11.25;;;6.65;;
74245;SDS011;62601;51.044;13.788;2023-04-27T09:36:43;9.48;;;6.53;;
74245;SDS011;62601;51.044;13.788;2023-04-27T09:39:04;8.30;;;5.53;;
74245;SDS011;62601;51.044;13.788;2023-04-27T09:41:29;7.13;;;5.82;;
74245;SDS011;62601;51.044;13.788;2023-04-27T09:43:54;7.45;;;5.15;;
74245;SDS011;62601;51.044;13.788;2023-04-27T09:46:15;6.63;;;5.90;;
74245;SDS011;62601;51.044;13.788;2023-04-27T09:48:37;7.32;;;6.25;;
74245;SDS011;62601;51.044;13.788;2023-04-27T09:50:58;6.43;;;5.28;;
74245;SDS011;62601;51.044;13.788;2023-04-27T09:53:21;9.20;;;6.30;;
74245;SDS011;62601;51.044;13.788;2023-04-27T10:00:59;6.40;;;5.63;;
74245;SDS011;62601;51.044;13.788;2023-04-27T10:03:45;10.27;;;5.80;;
74245;SDS011;62601;51.044;13.788;2023-04-27T10:08:50;8.50;;;6.55;;
74245;SDS011;62601;51.044;13.788;2023-04-27T10:11:15;7.82;;;6.25;;
74245;SDS011;62601;51.044;13.788;2023-04-27T10:13:37;7.07;;;6.25;;
74245;SDS011;62601;51.044;13.788;2023-04-27T10:15:58;6.55;;;5.95;;
74245;SDS011;62601;51.044;13.788;2023-04-27T10:18:34;7.20;;;6.47;;
74245;SDS011;62601;51.044;13.788;2023-04-27T10:20:54;7.45;;;6.55;;
74245;SDS011;62601;51.044;13.788;2023-04-27T10:23:23;10.25;;;6.25;;
74245;SDS011;62601;51.044;13.788;2023-04-27T10:25:45;12.00;;;6.78;;
74245;SDS011;62601;51.044;13.788;2023-04-27T10:28:06;8.50;;;7.13;;
74245;SDS011;62601;51.044;13.788;2023-04-27T10:30:37;10.15;;;7.38;;
74245;SDS011;62601;51.044;13.788;2023-04-27T10:33:06;7.90;;;7.10;;
74245;SDS011;62601;51.044;13.788;2023-04-27T10:35:44;8.57;;;6.97;;
74245;SDS011;62601;51.044;13.788;2023-04-27T10:38:17;7.60;;;6.60;;
74245;SDS011;62601;51.044;13.788;2023-04-27T10:40:37;8.93;;;6.35;;
74245;SDS011;62601;51.044;13.788;2023-04-27T10:43:23;7.28;;;6.55;;
74245;SDS011;62601;51.044;13.788;2023-04-27T10:45:41;8.50;;;6.10;;
74245;SDS011;62601;51.044;13.788;2023-04-27T10:48:05;8.43;;;6.10;;
74245;SDS011;62601;51.044;13.788;2023-04-27T10:50:26;8.63;;;6.50;;
74245;SDS011;62601;51.044;13.788;2023-04-27T10:52:47;9.15;;;6.50;;
74245;SDS011;62601;51.044;13.788;2023-04-27T10:55:20;7.68;;;6.72;;
74245;SDS011;62601;51.044;13.788;2023-04-27T10:58:00;8.73;;;6.85;;
74245;SDS011;62601;51.044;13.788;2023-04-27T11:00:23;9.13;;;7.68;;
74245;SDS011;62601;51.044;13.788;2023-04-27T11:02:44;7.55;;;6.85;;
74245;SDS011;62601;51.044;13.788;2023-04-27T11:05:14;10.15;;;8.15;;
74245;SDS011;62601;51.044;13.788;2023-04-27T11:07:35;11.02;;;6.65;;
74245;SDS011;62601;51.044;13.788;2023-04-27T11:09:56;10.10;;;6.88;;
74245;SDS011;62601;51.044;13.788;2023-04-27T11:12:18;7.15;;;6.45;;
74245;SDS011;62601;51.044;13.788;2023-04-27T11:14:39;8.02;;;7.07;;
74245;SDS011;62601;51.044;13.788;2023-04-27T11:16:59;9.10;;;7.68;;
74245;SDS011;62601;51.044;13.788;2023-04-27T11:19:21;7.10;;;6.50;;
74245;SDS011;62601;51.044;13.788;2023-04-27T11:21:42;8.52;;;6.53;;
74245;SDS011;62601;51.044;13.788;2023-04-27T11:24:04;7.35;;;5.80;;
74245;SDS011;62601;51.044;13.788;2023-04-27T11:26:26;9.07;;;6.10;;
74245;SDS011;62601;51.044;13.788;2023-04-27T11:31:18;9.40;;;6.00;;
74245;SDS011;62601;51.044;13.788;2023-04-27T11:33:38;7.00;;;6.30;;
74245;SDS011;62601;51.044;13.788;2023-04-27T11:36:16;8.32;;;5.55;;
74245;SDS011;62601;51.044;13.788;2023-04-27T11:38:37;8.10;;;6.38;;
74245;SDS011;62601;51.044;13.788;2023-04-27T11:41:05;7.03;;;5.80;;
74245;SDS011;62601;51.044;13.788;2023-04-27T11:43:26;9.15;;;6.43;;
74245;SDS011;62601;51.044;13.788;2023-04-27T11:45:48;6.25;;;5.60;;
74245;SDS011;62601;51.044;13.788;2023-04-27T11:48:13;7.20;;;6.15;;
74245;SDS011;62601;51.044;13.788;2023-04-27T11:50:33;7.93;;;5.70;;
74245;SDS011;62601;51.044;13.788;2023-04-27T11:52:53;6.32;;;5.63;;
74245;SDS011;62601;51.044;13.788;2023-04-27T11:55:13;7.30;;;6.60;;
74245;SDS011;62601;51.044;13.788;2023-04-27T11:57:35;7.68;;;6.03;;
74245;SDS011;62601;51.044;13.788;2023-04-27T11:59:55;6.57;;;5.97;;
74245;SDS011;62601;51.044;13.788;2023-04-27T12:02:18;8.48;;;6.15;;
74245;SDS011;62601;51.044;13.788;2023-04-27T12:04:39;8.50;;;6.22;;
74245;SDS011;62601;51.044;13.788;2023-04-27T12:07:01;7.03;;;5.80;;
74245;SDS011;62601;51.044;13.788;2023-04-27T12:09:21;6.83;;;5.80;;
74245;SDS011;62601;51.044;13.788;2023-04-27T12:11:42;6.73;;;5.40;;
74245;SDS011;62601;51.044;13.788;2023-04-27T12:14:04;7.10;;;6.40;;
74245;SDS011;62601;51.044;13.788;2023-04-27T12:16:25;5.53;;;5.03;;
74245;SDS011;62601;51.044;13.788;2023-04-27T12:18:45;6.70;;;5.20;;
74245;SDS011;62601;51.044;13.788;2023-04-27T12:21:05;8.13;;;6.67;;
74245;SDS011;62601;51.044;13.788;2023-04-27T12:23:26;7.00;;;6.13;;
74245;SDS011;62601;51.044;13.788;2023-04-27T12:25:46;5.90;;;5.30;;
74245;SDS011;62601;51.044;13.788;2023-04-27T12:28:08;7.50;;;5.90;;
74245;SDS011;62601;51.044;13.788;2023-04-27T12:30:28;6.20;;;5.60;;
74245;SDS011;62601;51.044;13.788;2023-04-27T12:32:48;9.63;;;6.20;;
74245;SDS011;62601;51.044;13.788;2023-04-27T12:35:10;6.40;;;5.80;;
74245;SDS011;62601;51.044;13.788;2023-04-27T12:37:30;7.50;;;6.80;;
74245;SDS011;62601;51.044;13.788;2023-04-27T12:39:51;5.70;;;5.20;;
74245;SDS011;62601;51.044;13.788;2023-04-27T12:42:11;5.90;;;5.43;;
74245;SDS011;62601;51.044;13.788;2023-04-27T12:44:32;6.37;;;5.60;;
74245;SDS011;62601;51.044;13.788;2023-04-27T12:46:52;6.93;;;6.23;;
74245;SDS011;62601;51.044;13.788;2023-04-27T12:49:12;6.23;;;5.50;;
74245;SDS011;62601;51.044;13.788;2023-04-27T12:51:32;6.70;;;6.07;;
74245;SDS011;62601;51.044;13.788;2023-04-27T12:53:52;5.80;;;5.33;;
74245;SDS011;62601;51.044;13.788;2023-04-27T12:56:12;7.13;;;6.53;;
74245;SDS011;62601;51.044;13.788;2023-04-27T12:58:33;7.27;;;6.60;;
74245;SDS011;62601;51.044;13.788;2023-04-27T13:00:55;7.27;;;6.00;;
74245;SDS011;62601;51.044;13.788;2023-04-27T13:03:17;6.50;;;5.90;;
74245;SDS011;62601;51.044;13.788;2023-04-27T13:05:37;6.13;;;5.63;;
74245;SDS011;62601;51.044;13.788;2023-04-27T13:07:59;7.30;;;6.50;;
74245;SDS011;62601;51.044;13.788;2023-04-27T13:10:19;6.57;;;5.97;;
74245;SDS011;62601;51.044;13.788;2023-04-27T13:12:39;7.13;;;6.43;;
74245;SDS011;62601;51.044;13.788;2023-04-27T13:14:59;6.50;;;5.90;;
74245;SDS011;62601;51.044;13.788;2023-04-27T13:17:20;7.30;;;6.70;;
74245;SDS011;62601;51.044;13.788;2023-04-27T13:19:41;6.50;;;5.97;;
74245;SDS011;62601;51.044;13.788;2023-04-27T13:22:02;7.60;;;7.00;;
74245;SDS011;62601;51.044;13.788;2023-04-27T13:24:23;6.27;;;5.70;;
74245;SDS011;62601;51.044;13.788;2023-04-27T13:26:45;7.33;;;6.73;;
74245;SDS011;62601;51.044;13.788;2023-04-27T13:29:06;7.03;;;6.37;;
74245;SDS011;62601;51.044;13.788;2023-04-27T13:31:27;9.23;;;7.07;;
74245;SDS011;62601;51.044;13.788;2023-04-27T13:33:52;6.37;;;5.83;;
74245;SDS011;62601;51.044;13.788;2023-04-27T13:36:12;8.37;;;7.23;;
74245;SDS011;62601;51.044;13.788;2023-04-27T13:38:34;7.10;;;6.40;;
74245;SDS011;62601;51.044;13.788;2023-04-27T13:40:56;9.73;;;6.37;;
74245;SDS011;62601;51.044;13.788;2023-04-27T13:43:17;8.30;;;6.20;;
74245;SDS011;62601;51.044;13.788;2023-04-27T13:45:37;7.00;;;6.30;;
74245;SDS011;62601;51.044;13.788;2023-04-27T13:47:59;6.87;;;6.17;;
74245;SDS011;62601;51.044;13.788;2023-04-27T13:50:20;8.60;;;7.80;;
74245;SDS011;62601;51.044;13.788;2023-04-27T13:52:41;6.90;;;6.40;;
74245;SDS011;62601;51.044;13.788;2023-04-27T13:55:04;7.90;;;7.10;;
74245;SDS011;62601;51.044;13.788;2023-04-27T13:57:25;7.90;;;7.10;;
74245;SDS011;62601;51.044;13.788;2023-04-27T13:59:46;10.63;;;7.40;;
74245;SDS011;62601;51.044;13.788;2023-04-27T14:02:07;8.00;;;6.77;;
74245;SDS011;62601;51.044;13.788;2023-04-27T14:04:27;8.00;;;7.23;;
74245;SDS011;62601;51.044;13.788;2023-04-27T14:06:47;8.33;;;7.53;;
74245;SDS011;62601;51.044;13.788;2023-04-27T14:09:07;11.07;;;7.30;;
74245;SDS011;62601;51.044;13.788;2023-04-27T14:11:11;8.10;;;7.30;;